Time;durP1;ratioP1;P1;durP2;ratioP2;P2;SDS_P1;SDS_P2;PMS_P1;PMS_P2;Temp;Humidity;BMP_temperature;BMP_pressure;BME280_temperature;BME280_humidity;BME280_pressure;Samples;Min_cycle;Max_cycle;Signal;HPM_P1;HPM_P2
2021/05/11 00:02:48;;;;;;;0.50;0.50;;;;;;;12.47;73.61;95729.31;5091291;28;20363;-84
2021/05/11 00:05:15;;;;;;;0.45;0.45;;;;;;;12.46;73.74;95719.84;5090592;28;20048;-86
2021/05/11 00:07:42;;;;;;;0.40;0.40;;;;;;;12.45;73.75;95726.13;5090547;28;20396;-85
2021/05/11 00:10:09;;;;;;;0.50;0.50;;;;;;;12.44;73.88;95727.19;5090698;28;20047;-85
2021/05/11 00:12:35;;;;;;;0.45;0.45;;;;;;;12.42;73.90;95719.53;5090722;28;20055;-85
2021/05/11 00:15:03;;;;;;;0.50;0.50;;;;;;;12.39;73.91;95725.31;5090521;28;20495;-85
2021/05/11 00:17:30;;;;;;;0.52;0.52;;;;;;;12.38;74.16;95731.59;5090348;28;20040;-85
2021/05/11 00:19:59;;;;;;;0.38;0.38;;;;;;;12.38;74.12;95727.09;5090636;28;20040;-84
2021/05/11 00:22:26;;;;;;;0.60;0.60;;;;;;;12.35;74.06;95721.56;5091232;28;20035;-85
2021/05/11 00:24:52;;;;;;;0.40;0.40;;;;;;;12.36;74.42;95736.28;5090493;28;20040;-84
2021/05/11 00:27:18;;;;;;;0.40;0.40;;;;;;;12.35;74.41;95729.47;5090473;28;20041;-84
2021/05/11 00:29:44;;;;;;;0.30;0.30;;;;;;;12.36;74.39;95723.94;5090183;28;20051;-80
2021/05/11 00:32:11;;;;;;;0.40;0.40;;;;;;;12.34;74.28;95726.00;5090683;28;20036;-80
2021/05/11 00:34:37;;;;;;;0.43;0.35;;;;;;;12.33;74.41;95719.19;5090326;28;20048;-80
2021/05/11 00:37:03;;;;;;;0.40;0.40;;;;;;;12.33;74.50;95713.13;5090029;28;20043;-80
2021/05/11 00:39:29;;;;;;;0.30;0.30;;;;;;;12.31;74.52;95716.00;5089538;28;20044;-84
2021/05/11 00:41:55;;;;;;;0.40;0.40;;;;;;;12.31;74.57;95721.25;5089448;28;20044;-84
2021/05/11 00:44:24;;;;;;;0.30;0.30;;;;;;;12.30;74.68;95721.50;5090264;28;20480;-84
2021/05/11 00:47:04;;;;;;;0.50;0.50;;;;;;;12.28;74.67;95711.22;5090667;28;20044;-84
2021/05/11 00:49:32;;;;;;;0.40;0.40;;;;;;;12.27;74.72;95696.50;5089383;28;20217;-84
2021/05/11 00:52:00;;;;;;;0.50;0.50;;;;;;;12.28;74.62;95692.03;5089749;28;20048;-85
2021/05/11 00:54:27;;;;;;;0.32;0.32;;;;;;;12.27;74.79;95693.88;5089227;28;20040;-84
2021/05/11 00:56:55;;;;;;;0.70;0.70;;;;;;;12.26;75.00;95692.28;5089596;28;20373;-84
2021/05/11 00:59:26;;;;;;;0.45;0.45;;;;;;;12.25;74.88;95690.69;5089459;28;20044;-84
2021/05/11 01:01:54;;;;;;;0.38;0.38;;;;;;;12.24;74.89;95697.00;5089442;28;20051;-84
2021/05/11 01:04:21;;;;;;;0.43;0.43;;;;;;;12.25;75.02;95689.91;5089400;28;20052;-84
2021/05/11 01:06:47;;;;;;;0.30;0.30;;;;;;;12.25;74.81;95682.81;5089018;28;20049;-83
2021/05/11 01:09:14;;;;;;;0.43;0.43;;;;;;;12.25;75.14;95682.81;5089631;28;20487;-84
2021/05/11 01:11:41;;;;;;;0.68;0.47;;;;;;;12.28;75.25;95676.25;5089586;28;20041;-82
2021/05/11 01:14:08;;;;;;;0.60;0.60;;;;;;;12.25;75.29;95661.78;5076028;28;20040;-84
2021/05/11 01:16:37;;;;;;;1.02;1.02;;;;;;;12.25;75.50;95664.41;5075915;28;20487;-84
2021/05/11 01:19:13;;;;;;;1.00;1.00;;;;;;;12.24;75.21;95665.47;5076065;28;20051;-83
2021/05/11 01:26:53;;;;;;;1.27;1.23;;;;;;;12.23;75.84;95661.22;5076351;28;20052;-83
2021/05/11 01:29:35;;;;;;;1.13;1.13;;;;;;;12.22;75.68;95651.78;5076326;28;20090;-83
2021/05/11 01:56:20;;;;;;;3.25;3.05;;;;;;;11.88;76.71;95672.09;5075224;28;20477;-79
2021/05/11 02:18:30;;;;;;;2.53;2.40;;;;;;;11.90;77.69;95673.47;5074761;28;20389;-80
2021/05/11 02:23:40;;;;;;;;;;;;;;;11.93;78.44;95665.13;5075284;28;20051;-80
2021/05/11 02:26:07;;;;;;;3.33;3.10;;;;;;;11.92;77.73;95660.09;5074329;28;19912;-80
2021/05/11 02:28:33;;;;;;;3.42;3.22;;;;;;;11.93;77.54;95665.13;5073607;28;20036;-80
2021/05/11 02:30:59;;;;;;;3.60;3.40;;;;;;;11.94;77.56;95664.06;5074363;28;20397;-81
2021/05/11 02:33:26;;;;;;;3.17;2.90;;;;;;;11.93;77.52;95661.72;5073997;28;20053;-80
2021/05/11 02:35:52;;;;;;;3.20;3.00;;;;;;;11.94;77.89;95665.91;5074377;28;20044;-81
2021/05/11 02:38:19;;;;;;;3.28;3.08;;;;;;;11.92;77.77;95657.47;5074286;28;20051;-81
2021/05/11 02:40:45;;;;;;;2.78;2.63;;;;;;;11.90;77.81;95655.09;5064565;28;20032;-80
2021/05/11 02:43:16;;;;;;;3.20;3.00;;;;;;;11.90;77.83;95664.81;5074417;28;20044;-81
2021/05/11 02:45:42;;;;;;;2.80;2.70;;;;;;;11.88;77.93;95656.34;5074485;28;20044;-81
2021/05/11 02:48:09;;;;;;;2.67;2.55;;;;;;;11.86;77.96;95672.34;5074159;28;20409;-82
2021/05/11 02:50:35;;;;;;;2.60;2.50;;;;;;;11.84;77.91;95668.38;5073923;28;20028;-85
2021/05/11 02:53:04;;;;;;;2.70;2.60;;;;;;;11.83;77.86;95672.06;5074795;28;20033;-84
2021/05/11 02:55:30;;;;;;;2.67;2.25;;;;;;;11.84;77.99;95679.69;5074020;28;20047;-84
2021/05/11 02:57:57;;;;;;;2.45;2.30;;;;;;;11.81;77.99;95674.13;5074417;28;20032;-84
2021/05/11 03:00:25;;;;;;;2.55;2.35;;;;;;;11.80;77.93;95678.59;5073493;28;20028;-80
2021/05/11 03:02:51;;;;;;;2.58;2.38;;;;;;;11.79;77.87;95669.13;5074215;28;20060;-85
2021/05/11 03:05:18;;;;;;;2.60;2.50;;;;;;;11.77;78.01;95668.56;5073602;28;20048;-82
2021/05/11 03:07:45;;;;;;;2.80;2.70;;;;;;;11.75;77.86;95670.66;5074011;28;20051;-81
2021/05/11 03:10:14;;;;;;;2.72;2.63;;;;;;;11.73;78.08;95667.47;5073652;28;20033;-82
2021/05/11 03:12:40;;;;;;;2.67;2.47;;;;;;;11.72;77.95;95671.16;5073554;28;20502;-82
2021/05/11 03:15:08;;;;;;;2.78;2.58;;;;;;;11.71;77.92;95657.19;5073614;28;20044;-82
2021/05/11 03:17:34;;;;;;;2.67;2.58;;;;;;;11.66;77.95;95645.84;5073916;28;20107;-82
2021/05/11 03:20:01;;;;;;;2.58;2.30;;;;;;;11.63;77.72;95643.69;5073610;28;20059;-82
2021/05/11 03:22:27;;;;;;;2.72;2.63;;;;;;;11.60;77.61;95668.63;5073383;28;20045;-82
2021/05/11 03:24:53;;;;;;;2.65;2.55;;;;;;;11.54;77.67;95657.25;5073601;28;20052;-82
2021/05/11 03:27:19;;;;;;;2.90;2.70;;;;;;;11.53;77.59;95653.06;5073558;28;20032;-82
2021/05/11 03:29:46;;;;;;;2.97;2.78;;;;;;;11.48;77.74;95634.59;5072842;28;20487;-88
2021/05/11 03:32:12;;;;;;;3.13;2.92;;;;;;;11.46;77.51;95630.63;5073271;28;20032;-88
2021/05/11 03:34:38;;;;;;;3.05;2.85;;;;;;;11.42;77.62;95626.91;5072773;28;20040;-84
2021/05/11 03:37:05;;;;;;;3.38;3.17;;;;;;;11.39;77.60;95628.19;5073120;28;20040;-82
2021/05/11 03:39:37;;;;;;;2.92;2.80;;;;;;;11.34;77.58;95610.53;5072970;28;20043;-83
2021/05/11 03:42:10;;;;;;;2.83;2.72;;;;;;;11.32;77.39;95603.94;5064853;28;20039;-80
2021/05/11 03:44:38;;;;;;;3.03;2.83;;;;;;;11.27;77.31;95609.13;5073718;28;20043;-81
2021/05/11 03:47:05;;;;;;;2.85;2.65;;;;;;;11.22;77.30;95617.72;5072599;28;20481;-81
2021/05/11 03:49:31;;;;;;;3.20;3.00;;;;;;;11.20;77.40;95624.25;5073738;28;20028;-83
2021/05/11 03:51:57;;;;;;;2.85;2.65;;;;;;;11.15;77.04;95623.16;5073714;28;20047;-83
2021/05/11 03:54:24;;;;;;;2.53;2.35;;;;;;;11.13;77.22;95621.81;5073055;28;20037;-84
2021/05/11 03:56:50;;;;;;;2.78;2.60;;;;;;;11.08;77.30;95617.25;5073676;28;20029;-82
2021/05/11 03:59:19;;;;;;;2.83;2.63;;;;;;;11.08;77.23;95613.84;5073077;28;20400;-84
2021/05/11 04:01:45;;;;;;;2.47;2.28;;;;;;;11.05;77.24;95601.22;5073630;28;20060;-84
2021/05/11 04:04:11;;;;;;;2.33;2.20;;;;;;;11.03;77.31;95601.47;5073054;28;20504;-84
2021/05/11 04:06:39;;;;;;;1.60;1.50;;;;;;;11.01;77.03;95598.28;5073358;28;20424;-84
2021/05/11 04:09:13;;;;;;;1.10;1.10;;;;;;;11.00;77.26;95606.38;5073066;28;20040;-84
2021/05/11 04:16:36;;;;;;;0.70;0.70;;;;;;;10.98;77.62;95606.63;5073353;28;20032;-84
2021/05/11 04:19:02;;;;;;;0.63;0.63;;;;;;;11.00;77.77;95612.41;5072809;28;20044;-83
2021/05/11 04:21:28;;;;;;;1.95;0.70;;;;;;;11.02;77.86;95599.84;5072816;28;20036;-84
2021/05/11 04:23:55;;;;;;;0.75;0.75;;;;;;;11.05;78.03;95593.34;5073186;28;20036;-84
2021/05/11 04:26:23;;;;;;;1.10;1.00;;;;;;;11.06;77.91;95593.09;5072817;28;20045;-84
2021/05/11 04:28:50;;;;;;;1.10;1.10;;;;;;;11.09;78.16;95591.84;5072237;28;20500;-84
2021/05/11 04:31:18;;;;;;;1.73;1.63;;;;;;;11.08;78.26;95593.66;5072678;28;20033;-84
2021/05/11 04:33:45;;;;;;;2.40;2.20;;;;;;;11.07;78.52;95591.28;5072666;28;20047;-84
2021/05/11 04:36:12;;;;;;;3.15;2.88;;;;;;;11.04;78.61;95600.41;5072919;28;20036;-84
2021/05/11 04:38:38;;;;;;;5.13;4.20;;;;;;;11.01;79.07;95606.16;5072766;28;20041;-82
2021/05/11 04:41:05;;;;;;;5.03;4.20;;;;;;;11.01;79.11;95608.78;5072637;28;20029;-84
2021/05/11 04:43:35;;;;;;;4.65;3.53;;;;;;;11.03;79.49;95611.94;5073009;28;20041;-84
2021/05/11 04:48:52;;;;;;;3.40;3.10;;;;;;;11.04;80.10;95620.59;5075277;28;20508;-85
2021/05/11 04:51:20;;;;;;;3.65;2.90;;;;;;;11.08;79.66;95621.72;5076286;28;20044;-84
2021/05/11 04:53:47;;;;;;;3.35;2.97;;;;;;;11.11;79.80;95635.16;5076386;28;20063;-84
2021/05/11 04:56:14;;;;;;;4.80;4.10;;;;;;;11.15;79.76;95636.28;5075844;28;20469;-82
2021/05/11 04:58:40;;;;;;;5.10;4.43;;;;;;;11.20;79.88;95638.16;5075888;28;20067;-82
2021/05/11 05:01:06;;;;;;;4.60;4.20;;;;;;;11.22;80.02;95635.31;5076157;28;20465;-82
2021/05/11 05:03:38;;;;;;;4.82;4.07;;;;;;;11.26;80.33;95623.28;5076050;28;20051;-82
2021/05/11 05:06:05;;;;;;;4.25;3.47;;;;;;;11.31;80.30;95612.84;5076439;28;20055;-82
2021/05/11 05:08:31;;;;;;;5.00;4.32;;;;;;;11.33;80.28;95613.41;5076403;28;20045;-82
2021/05/11 05:10:58;;;;;;;5.28;4.47;;;;;;;11.34;80.39;95615.00;5076180;28;20041;-82
2021/05/11 05:13:26;;;;;;;6.45;5.32;;;;;;;11.38;80.43;95629.19;5075934;28;20036;-82
2021/05/11 05:15:53;;;;;;;7.07;5.03;;;;;;;11.41;80.46;95631.34;5075811;28;20469;-82
2021/05/11 05:18:20;;;;;;;6.05;5.35;;;;;;;11.45;80.48;95619.34;5076128;28;20041;-82
2021/05/11 05:20:49;;;;;;;6.80;5.68;;;;;;;11.48;80.63;95612.78;5075821;28;20044;-88
2021/05/11 05:23:16;;;;;;;5.72;5.18;;;;;;;11.51;80.64;95620.19;5074373;28;20029;-84
2021/05/11 05:25:49;;;;;;;6.85;5.75;;;;;;;11.54;81.09;95622.31;5076403;28;20469;-85
2021/05/11 05:28:15;;;;;;;6.35;5.55;;;;;;;11.55;80.92;95618.69;5075447;28;20044;-84
2021/05/11 05:30:41;;;;;;;5.93;5.32;;;;;;;11.58;80.71;95628.69;5075848;28;20032;-84
2021/05/11 05:33:07;;;;;;;6.03;5.35;;;;;;;11.60;81.02;95628.44;5075900;28;20048;-85
2021/05/11 05:35:34;;;;;;;6.07;5.57;;;;;;;11.62;81.08;95636.88;5075990;28;20037;-85
2021/05/11 05:38:00;;;;;;;6.38;5.78;;;;;;;11.64;80.95;95632.97;5075845;28;20037;-85
2021/05/11 05:40:27;;;;;;;7.05;6.35;;;;;;;11.64;81.12;95627.72;5075058;28;20045;-83
2021/05/11 05:42:53;;;;;;;6.00;5.53;;;;;;;11.62;81.02;95624.53;5075221;28;20036;-83
2021/05/11 05:45:20;;;;;;;6.65;6.05;;;;;;;11.65;81.33;95618.00;5075423;28;20032;-83
2021/05/11 05:47:52;;;;;;;6.78;6.07;;;;;;;11.67;81.19;95629.03;5075180;28;20396;-84
2021/05/11 05:50:24;;;;;;;6.93;5.68;;;;;;;11.71;81.83;95645.91;5075936;28;20040;-84
2021/05/11 05:52:56;;;;;;;6.57;5.97;;;;;;;11.77;81.52;95647.56;5075244;28;20397;-81
2021/05/11 05:55:22;;;;;;;6.82;6.22;;;;;;;11.81;81.50;95648.66;5073922;28;20040;-84
2021/05/11 05:57:48;;;;;;;7.25;6.55;;;;;;;11.86;81.50;95651.31;5075277;28;20040;-82
2021/05/11 06:00:17;;;;;;;7.93;7.25;;;;;;;11.88;81.40;95623.00;5074998;28;20044;-82
2021/05/11 06:02:48;;;;;;;7.93;7.22;;;;;;;11.91;81.30;95622.53;5075285;28;20047;-82
2021/05/11 06:05:15;;;;;;;8.75;7.85;;;;;;;11.96;81.48;95630.47;5074898;28;20068;-82
2021/05/11 06:07:41;;;;;;;6.90;6.30;;;;;;;12.01;81.42;95619.22;5075142;28;20485;-82
2021/05/11 06:10:09;;;;;;;7.25;6.65;;;;;;;12.09;81.43;95615.34;5075214;28;20037;-82
2021/05/11 06:13:05;;;;;;;7.93;7.22;;;;;;;12.13;81.28;95611.97;5074657;28;20040;-82
2021/05/11 06:18:11;;;;;;;;;;;;;;;12.16;81.54;95616.75;5075407;28;20044;-82
2021/05/11 06:20:37;;;;;;;7.63;6.93;;;;;;;12.20;81.18;95614.44;5075299;28;19912;-82
2021/05/11 06:23:03;;;;;;;7.47;6.85;;;;;;;12.23;81.10;95590.25;5073554;28;20462;-82
2021/05/11 06:25:29;;;;;;;8.10;7.30;;;;;;;12.27;80.89;95593.97;5075013;28;20043;-82
2021/05/11 06:27:57;;;;;;;7.03;6.43;;;;;;;12.28;80.88;95582.41;5074506;28;20047;-82
2021/05/11 06:30:24;;;;;;;7.50;6.80;;;;;;;12.33;80.76;95597.47;5074588;28;20036;-82
2021/05/11 06:32:50;;;;;;;7.60;6.95;;;;;;;12.36;80.86;95599.56;5074007;28;20049;-82
2021/05/11 06:35:17;;;;;;;8.07;7.38;;;;;;;12.42;80.81;95595.16;5074232;28;20044;-82
2021/05/11 06:37:43;;;;;;;8.98;8.10;;;;;;;12.45;80.81;95590.22;5074224;28;20040;-82
2021/05/11 06:40:10;;;;;;;9.52;8.70;;;;;;;12.49;80.84;95590.47;5074267;28;20037;-82
2021/05/11 06:42:39;;;;;;;10.20;9.38;;;;;;;12.51;80.81;95593.66;5073632;28;20048;-83
2021/05/11 06:45:34;;;;;;;9.82;9.02;;;;;;;12.50;80.56;95594.72;5073273;28;20435;-83
2021/05/11 06:53:05;;;;;;;9.73;8.93;;;;;;;12.54;80.75;95580.81;5074062;28;20040;-82
2021/05/11 06:55:31;;;;;;;9.88;8.98;;;;;;;12.56;80.70;95589.22;5074388;28;20040;-82
2021/05/11 06:58:04;;;;;;;9.70;8.90;;;;;;;12.61;80.70;95585.06;5074108;28;20401;-82
2021/05/11 07:00:43;;;;;;;9.23;8.43;;;;;;;12.59;80.43;95593.19;5073851;28;20118;-81
2021/05/11 07:03:09;;;;;;;8.60;7.93;;;;;;;12.59;80.55;95591.34;5073827;28;20047;-82
2021/05/11 07:05:36;;;;;;;8.35;7.63;;;;;;;12.63;80.56;95606.66;5074137;28;20388;-81
2021/05/11 07:10:36;;;;;;;8.20;7.60;;;;;;;12.71;80.49;95596.44;5073158;28;20485;-82
2021/05/11 07:13:08;;;;;;;8.40;7.70;;;;;;;12.75;80.18;95580.97;5073047;28;20485;-81
2021/05/11 07:15:35;;;;;;;7.80;7.20;;;;;;;12.78;80.11;95572.56;5074015;28;20037;-82
2021/05/11 07:18:28;;;;;;;7.30;6.70;;;;;;;12.84;79.66;95568.13;5073439;28;20115;-81
2021/05/11 07:20:59;;;;;;;7.05;6.50;;;;;;;12.91;79.95;95561.56;5071624;28;20044;-81
2021/05/11 07:23:27;;;;;;;7.05;6.55;;;;;;;12.95;79.83;95559.22;5073310;28;20024;-82
2021/05/11 07:31:17;;;;;;;5.80;5.40;;;;;;;13.01;79.18;95552.97;5062942;28;20388;-82
2021/05/11 07:33:51;;;;;;;7.43;6.82;;;;;;;13.04;78.94;95544.56;5073870;28;20049;-81
2021/05/11 07:36:18;;;;;;;6.68;6.18;;;;;;;13.07;78.91;95538.00;5060398;28;20045;-82
2021/05/11 07:38:45;;;;;;;7.68;7.07;;;;;;;13.12;78.95;95545.91;5073317;28;20044;-82
2021/05/11 07:41:14;;;;;;;7.20;6.60;;;;;;;13.14;78.69;95538.53;5073182;28;20028;-81
2021/05/11 07:43:42;;;;;;;7.10;6.55;;;;;;;13.14;78.67;95549.84;5073337;28;20571;-83
2021/05/11 08:02:47;;;;;;;5.47;5.07;;;;;;;13.23;77.92;95583.59;5073305;28;20048;-81
2021/05/11 08:10:34;;;;;;;4.45;4.05;;;;;;;13.57;77.15;95571.69;5073373;28;20035;-81
2021/05/11 08:16:06;;;;;;;4.82;4.43;;;;;;;13.79;76.55;95565.41;5073376;28;20426;-81
2021/05/11 08:18:47;;;;;;;4.78;4.47;;;;;;;13.85;76.01;95550.41;5064340;28;20047;-82
2021/05/11 08:29:27;;;;;;;4.82;4.53;;;;;;;13.93;75.01;95523.56;5077271;28;20067;-82
2021/05/11 08:31:54;;;;;;;4.53;4.22;;;;;;;13.97;74.98;95511.44;5077088;28;20468;-81
2021/05/11 08:34:20;;;;;;;4.82;4.47;;;;;;;14.01;74.68;95515.91;5077136;28;20074;-82
2021/05/11 08:36:46;;;;;;;4.43;4.13;;;;;;;14.07;74.47;95518.56;5076556;28;20043;-81
2021/05/11 08:39:13;;;;;;;4.43;4.13;;;;;;;14.16;74.25;95522.28;5076625;28;20033;-81
2021/05/11 08:41:39;;;;;;;4.15;3.85;;;;;;;14.24;73.76;95536.75;5077159;28;20044;-82
2021/05/11 08:44:07;;;;;;;4.75;4.45;;;;;;;14.27;73.71;95531.75;5076501;28;20491;-82
2021/05/11 08:46:37;;;;;;;4.15;3.85;;;;;;;14.36;73.19;95548.66;5076764;28;20051;-81
2021/05/11 08:49:05;;;;;;;4.05;3.85;;;;;;;14.45;73.28;95561.28;5076777;28;20396;-82
2021/05/11 08:51:37;;;;;;;4.22;4.03;;;;;;;14.48;73.01;95556.28;5076483;28;20044;-81
2021/05/11 09:26:54;;;;;;;2.60;2.50;;;;;;;15.01;69.53;95579.75;5075521;28;20367;-81
2021/05/11 09:44:51;;;;;;;3.38;3.17;;;;;;;15.21;68.63;95582.34;5102170;27;20343;-80
2021/05/11 10:48:30;;;;;;;2.08;1.98;;;;;;;16.90;61.62;95526.88;5076726;28;20039;-80
2021/05/11 10:50:57;;;;;;;2.80;2.60;;;;;;;16.96;61.95;95546.94;5076456;28;20040;-80
2021/05/11 10:53:46;;;;;;;2.40;2.30;;;;;;;17.01;60.54;95547.69;5088249;28;20040;-80
2021/05/11 10:56:27;;;;;;;3.15;2.38;;;;;;;17.10;59.94;95555.81;5087706;28;20028;-80
2021/05/11 10:59:13;;;;;;;2.42;2.22;;;;;;;17.29;60.58;95569.13;5079696;28;20036;-79
2021/05/11 11:01:43;;;;;;;2.60;2.38;;;;;;;17.58;60.92;95569.06;5086514;28;20059;-80
2021/05/11 11:04:16;;;;;;;2.42;2.33;;;;;;;18.01;59.37;95555.78;5089418;28;20356;-79
2021/05/11 11:06:57;;;;;;;2.33;2.22;;;;;;;18.49;58.34;95546.06;5080697;28;20028;-79
2021/05/11 11:09:28;;;;;;;2.78;2.67;;;;;;;18.80;57.93;95541.88;5083610;28;20043;-79
2021/05/11 11:11:54;;;;;;;2.38;2.28;;;;;;;18.94;57.85;95525.97;5083695;28;20044;-80
2021/05/11 11:14:21;;;;;;;2.60;2.50;;;;;;;18.92;56.93;95511.38;5089521;28;20353;-80
2021/05/11 11:16:49;;;;;;;2.67;2.47;;;;;;;18.81;56.74;95513.44;5085518;28;20040;-80
2021/05/11 11:19:17;;;;;;;2.10;2.00;;;;;;;18.95;56.72;95505.47;5083439;28;20043;-79
2021/05/11 11:23:32;;;;;;;2.17;2.08;;;;;;;19.04;56.31;95506.38;5088953;28;20036;-80
2021/05/11 11:24:36;;;;;;;2.30;2.13;;;;;;;19.26;55.88;95497.72;5085493;28;20037;-79
2021/05/11 11:27:03;;;;;;;2.35;1.98;;;;;;;19.68;55.27;95495.78;5087497;28;20036;-79
2021/05/11 11:29:30;;;;;;;2.25;2.15;;;;;;;20.06;54.74;95492.84;5083078;28;20106;-79
2021/05/11 11:31:56;;;;;;;2.50;2.40;;;;;;;20.47;54.27;95490.00;5080132;28;20024;-79
2021/05/11 11:34:38;;;;;;;2.47;2.30;;;;;;;20.67;52.57;95480.72;5083572;28;20059;-79
2021/05/11 11:37:07;;;;;;;2.40;2.30;;;;;;;20.55;52.37;95488.47;5085553;28;20052;-79
2021/05/11 11:39:46;;;;;;;2.05;1.95;;;;;;;20.36;51.50;95483.34;5088293;28;20049;-79
2021/05/11 11:42:30;;;;;;;1.88;1.77;;;;;;;20.21;50.28;95476.50;5083756;28;20052;-78
2021/05/11 11:44:59;;;;;;;1.73;1.63;;;;;;;20.06;52.34;95512.25;5075404;28;20035;-78
2021/05/11 11:47:27;;;;;;;1.83;1.73;;;;;;;19.87;52.41;95511.63;5085869;28;20044;-78
2021/05/11 11:50:01;;;;;;;1.90;1.80;;;;;;;19.78;52.45;95514.22;5083773;28;20048;-78
2021/05/11 11:52:36;;;;;;;1.60;1.55;;;;;;;19.67;52.75;95523.47;5087842;28;20047;-78
2021/05/11 11:57:46;;;;;;;1.85;1.75;;;;;;;19.23;53.31;95504.41;5076363;28;20052;-78
2021/05/11 12:00:17;;;;;;;1.85;1.75;;;;;;;19.08;52.84;95487.97;5085469;28;20048;-78
2021/05/11 12:03:01;;;;;;;1.67;1.67;;;;;;;18.97;53.75;95474.88;5084586;28;20059;-79
2021/05/11 12:05:54;;;;;;;1.70;1.65;;;;;;;18.89;53.55;95464.16;5087338;28;20043;-78
2021/05/11 12:08:28;;;;;;;1.60;1.50;;;;;;;18.77;54.28;95476.03;5075149;28;20405;-78
2021/05/11 12:11:00;;;;;;;1.52;1.48;;;;;;;18.72;54.22;95477.97;5089063;28;20044;-78
2021/05/11 12:13:31;;;;;;;1.42;1.42;;;;;;;18.70;54.48;95496.06;5087671;28;20036;-78
2021/05/11 12:16:06;;;;;;;1.63;1.52;;;;;;;18.61;54.17;95499.41;5075079;28;20473;-78
2021/05/11 12:18:33;;;;;;;1.30;1.30;;;;;;;18.56;54.32;95504.81;5089954;28;20046;-78
2021/05/11 12:21:02;;;;;;;1.23;1.23;;;;;;;18.54;54.46;95516.78;5081933;28;20028;-78
2021/05/11 12:23:29;;;;;;;1.65;1.55;;;;;;;18.47;54.51;95519.81;5081079;28;20028;-78
2021/05/11 12:25:58;;;;;;;1.35;1.25;;;;;;;18.43;55.06;95529.44;5079560;28;20512;-78
2021/05/11 12:28:33;;;;;;;1.20;1.20;;;;;;;18.40;54.72;95535.34;5082186;28;20032;-78
2021/05/11 12:31:00;;;;;;;0.90;0.90;;;;;;;18.40;55.07;95538.00;5089719;28;20465;-78
2021/05/11 12:33:40;;;;;;;1.80;0.90;;;;;;;18.41;54.96;95537.69;5080346;28;20055;-78
2021/05/11 12:36:23;;;;;;;0.60;0.60;;;;;;;18.39;55.08;95526.56;5082492;28;20051;-79
2021/05/11 12:38:52;;;;;;;3.28;0.60;;;;;;;18.34;55.06;95525.88;5085007;28;20035;-78
2021/05/11 12:41:32;;;;;;;0.43;0.43;;;;;;;18.33;54.96;95521.63;5081753;28;20392;-78
2021/05/11 12:44:02;;;;;;;0.60;0.60;;;;;;;18.31;55.07;95511.31;5086047;28;20044;-78
2021/05/11 12:46:31;;;;;;;0.77;0.30;;;;;;;18.35;55.35;95522.13;5090046;28;20437;-80
2021/05/11 12:49:02;;;;;;;1.50;0.70;;;;;;;18.28;54.70;95527.81;5081537;28;20036;-80
2021/05/11 12:51:40;;;;;;;2.47;0.45;;;;;;;18.12;54.99;95534.41;5083189;28;20036;-80
2021/05/11 12:54:27;;;;;;;0.30;0.30;;;;;;;17.91;55.73;95539.22;5086563;28;20051;-78
2021/05/11 12:57:05;;;;;;;0.75;0.30;;;;;;;17.76;55.75;95529.59;5074525;28;20438;-78
2021/05/11 13:25:10;;;;;;;1.20;1.10;;;;;;;15.71;61.88;95606.25;5085278;28;20048;-77
2021/05/11 13:26:16;;;;;;;1.25;1.10;;;;;;;15.59;62.81;95605.75;5085655;28;20048;-76
2021/05/11 13:33:54;;;;;;;1.65;1.60;;;;;;;15.42;64.35;95624.56;5078912;28;20056;-74
2021/05/11 13:36:21;;;;;;;;;;;;;;;15.40;66.64;95651.25;5084890;28;20150;-74
2021/05/11 13:38:47;;;;;;;2.65;1.80;;;;;;;15.48;65.22;95643.84;5084565;28;20402;-74
2021/05/11 13:41:14;;;;;;;1.80;1.70;;;;;;;15.49;65.26;95653.34;5078209;28;20039;-74
2021/05/11 13:43:40;;;;;;;1.88;1.77;;;;;;;15.37;65.51;95643.06;5084256;28;20052;-74
2021/05/11 13:46:07;;;;;;;2.10;2.00;;;;;;;15.27;66.01;95635.19;5083049;28;20048;-74
2021/05/11 13:48:38;;;;;;;2.40;2.30;;;;;;;15.16;66.67;95626.47;5087539;28;20043;-73
2021/05/11 13:51:17;;;;;;;1.98;1.88;;;;;;;15.16;67.32;95642.31;5082608;28;20051;-73
2021/05/11 13:53:47;;;;;;;1.80;1.80;;;;;;;15.11;67.24;95651.03;5082065;28;20484;-74
2021/05/11 14:04:07;;;;;;;2.13;2.03;;;;;;;14.70;69.30;95672.16;5087542;28;20053;-74
2021/05/11 14:06:34;;;;;;;2.50;2.30;;;;;;;14.68;69.76;95663.72;5088116;28;20040;-74
2021/05/11 14:09:00;;;;;;;2.40;2.30;;;;;;;14.65;70.08;95672.16;5080580;28;20036;-74
2021/05/11 14:11:27;;;;;;;2.05;1.95;;;;;;;14.61;70.35;95663.97;5078781;28;20048;-74
2021/05/11 14:13:53;;;;;;;2.33;2.22;;;;;;;14.53;70.76;95669.75;5081417;28;20045;-74
2021/05/11 14:16:19;;;;;;;2.30;2.20;;;;;;;14.52;71.26;95670.00;5083553;28;20044;-74
2021/05/11 14:18:46;;;;;;;2.05;1.95;;;;;;;14.45;71.46;95667.63;5082527;28;20047;-74
2021/05/11 14:21:12;;;;;;;2.17;2.08;;;;;;;14.38;71.55;95665.25;5084519;28;20067;-74
2021/05/11 14:23:45;;;;;;;1.90;1.80;;;;;;;14.29;71.87;95669.41;5082434;28;20427;-74
2021/05/11 14:26:12;;;;;;;1.73;1.63;;;;;;;14.22;72.24;95674.16;5090992;28;20037;-74
2021/05/11 14:28:38;;;;;;;1.52;1.42;;;;;;;14.15;72.26;95679.69;5090139;28;20032;-74
2021/05/11 14:31:05;;;;;;;1.10;1.10;;;;;;;14.16;72.70;95681.25;5082865;28;20043;-74
2021/05/11 14:33:31;;;;;;;1.80;1.70;;;;;;;14.18;73.21;95692.34;5083385;28;20056;-74
2021/05/11 14:35:58;;;;;;;0.90;0.90;;;;;;;14.14;73.33;95691.25;5088136;28;20052;-74
2021/05/11 14:38:24;;;;;;;0.80;0.80;;;;;;;14.14;73.74;95687.84;5087852;28;20059;-74
2021/05/11 14:40:50;;;;;;;0.70;0.70;;;;;;;14.14;73.90;95690.47;5086237;28;20032;-74
2021/05/11 14:43:17;;;;;;;0.65;0.65;;;;;;;14.12;73.77;95688.09;5081600;28;20392;-73
2021/05/11 14:45:43;;;;;;;1.67;1.58;;;;;;;14.08;73.74;95687.03;5090608;28;20036;-74
2021/05/11 14:48:09;;;;;;;2.00;1.90;;;;;;;14.02;74.26;95696.75;5086598;28;20048;-74
2021/05/11 14:50:36;;;;;;;0.85;0.85;;;;;;;14.05;74.58;95699.91;5086202;28;20042;-74
2021/05/11 14:53:02;;;;;;;1.50;1.40;;;;;;;14.11;74.55;95699.69;5086797;28;20044;-73
2021/05/11 14:55:28;;;;;;;6.60;6.15;;;;;;;14.21;74.80;95701.56;5088795;28;20396;-74
2021/05/11 14:57:55;;;;;;;14.90;13.80;;;;;;;14.24;74.55;95693.16;5080597;28;20047;-74
2021/05/11 15:00:25;;;;;;;4.78;4.47;;;;;;;14.26;74.70;95685.78;5087690;28;20040;-74
2021/05/11 15:02:51;;;;;;;0.88;0.63;;;;;;;14.23;74.50;95682.84;5092145;28;20040;-74
2021/05/11 15:05:17;;;;;;;0.57;0.57;;;;;;;14.09;73.96;95679.91;5087192;28;20050;-74
2021/05/11 15:07:44;;;;;;;0.63;0.63;;;;;;;13.89;74.38;95691.16;5084311;28;20044;-74
2021/05/11 15:10:10;;;;;;;0.47;0.47;;;;;;;13.82;75.11;95691.41;5081532;28;20457;-74
2021/05/11 15:12:36;;;;;;;0.65;0.65;;;;;;;13.75;74.95;95690.84;5088267;28;20045;-74
2021/05/11 15:15:03;;;;;;;0.40;0.40;;;;;;;13.76;75.34;95701.13;5089335;28;20392;-74
2021/05/11 15:19:57;;;;;;;2.00;1.90;;;;;;;13.81;75.60;95721.44;5081709;28;20400;-73
2021/05/11 15:22:26;;;;;;;2.03;0.73;;;;;;;13.79;75.76;95721.69;5084957;28;20063;-73
2021/05/11 15:24:53;;;;;;;0.55;0.50;;;;;;;13.79;75.91;95734.06;5084582;28;20480;-74
2021/05/11 15:27:20;;;;;;;0.40;0.40;;;;;;;13.77;76.04;95744.88;5087944;28;20119;-74
2021/05/11 15:29:46;;;;;;;0.50;0.50;;;;;;;13.77;76.01;95747.53;5086885;28;20063;-74
2021/05/11 15:32:56;;;;;;;0.50;0.50;;;;;;;13.75;77.27;95743.53;5082348;28;20040;-73
2021/05/11 15:35:37;;;;;;;0.98;0.80;;;;;;;13.72;76.80;95754.59;5075928;28;20057;-74
2021/05/11 15:38:05;;;;;;;0.60;0.60;;;;;;;13.71;76.59;95742.44;5075894;28;20516;-74
2021/05/11 15:40:35;;;;;;;0.55;0.55;;;;;;;13.70;76.68;95743.50;5085573;28;20032;-73
2021/05/11 15:43:04;;;;;;;1.35;1.35;;;;;;;13.69;76.69;95748.00;5081490;28;20392;-73
2021/05/11 15:45:31;;;;;;;2.25;2.15;;;;;;;13.68;76.73;95761.41;5079301;28;20040;-73
2021/05/11 15:48:01;;;;;;;1.17;0.70;;;;;;;13.64;76.97;95753.22;5086009;28;20055;-74
2021/05/11 15:50:30;;;;;;;2.25;0.60;;;;;;;13.60;77.18;95752.94;5088386;28;20043;-74
2021/05/11 15:53:02;;;;;;;2.10;1.50;;;;;;;13.57;77.31;95752.66;5084039;28;20036;-74
2021/05/11 15:55:33;;;;;;;0.70;0.70;;;;;;;13.58;77.59;95751.59;5080750;28;20043;-74
2021/05/11 15:58:00;;;;;;;2.20;2.10;;;;;;;13.52;77.23;95749.97;5089257;28;20032;-73
2021/05/11 16:00:28;;;;;;;1.75;1.65;;;;;;;13.43;77.30;95756.78;5086074;28;20040;-74
2021/05/11 16:02:55;;;;;;;1.48;1.08;;;;;;;13.37;77.84;95764.63;5078758;28;20461;-74
2021/05/11 16:05:22;;;;;;;17.85;16.25;;;;;;;13.31;77.96;95768.28;5082520;28;20436;-74